createdAt,value
2022-11-09T00:01:58.699Z,31.70
2022-11-09T00:04:46.485Z,32.23
2022-11-09T00:07:34.828Z,30.60
2022-11-09T00:10:22.270Z,29.37
2022-11-09T00:13:09.959Z,24.97
2022-11-09T00:16:00.000Z,32.60
2022-11-09T00:18:49.551Z,33.80
2022-11-09T00:21:37.266Z,30.87
2022-11-09T00:24:24.994Z,30.80
2022-11-09T00:27:17.382Z,27.90
2022-11-09T00:30:06.196Z,32.93
2022-11-09T00:32:53.930Z,26.90
2022-11-09T00:35:43.254Z,33.67
2022-11-09T00:38:30.914Z,33.67
2022-11-09T00:41:18.771Z,33.90
2022-11-09T00:44:06.489Z,35.03
2022-11-09T00:46:54.478Z,33.67
2022-11-09T00:49:41.988Z,31.57
2022-11-09T00:52:31.543Z,30.30
2022-11-09T00:55:21.159Z,29.30
2022-11-09T00:58:08.912Z,29.17
2022-11-09T01:00:58.524Z,29.63
2022-11-09T01:03:46.737Z,27.50
2022-11-09T01:06:34.609Z,28.90
2022-11-09T01:09:24.750Z,38.37
2022-11-09T01:12:12.686Z,32.07
2022-11-09T01:15:00.261Z,35.75
2022-11-09T01:17:48.032Z,48.53
2022-11-09T01:20:41.333Z,49.13
2022-11-09T01:23:28.816Z,45.77
2022-11-09T01:26:21.342Z,46.57
2022-11-09T01:29:11.025Z,46.47
2022-11-09T01:31:58.855Z,47.03
2022-11-09T01:34:46.589Z,46.87
2022-11-09T01:37:34.562Z,44.37
2022-11-09T01:40:22.541Z,47.17
2022-11-09T01:43:19.349Z,52.47
2022-11-09T01:46:14.165Z,48.00
2022-11-09T01:49:04.877Z,48.37
2022-11-09T01:51:58.230Z,40.73
2022-11-09T01:54:48.428Z,40.40
2022-11-09T01:57:40.952Z,34.37
2022-11-09T02:00:32.184Z,44.83
2022-11-09T02:03:25.618Z,38.20
2022-11-09T02:06:17.710Z,39.37
2022-11-09T02:09:11.070Z,36.57
2022-11-09T02:11:59.176Z,41.33
2022-11-09T02:14:49.326Z,38.57
2022-11-09T02:17:38.894Z,40.63
2022-11-09T02:20:29.481Z,36.33
2022-11-09T02:23:20.427Z,38.40
2022-11-09T02:26:12.021Z,46.13
2022-11-09T02:29:02.555Z,41.23
2022-11-09T02:31:53.480Z,36.73
2022-11-09T02:34:41.212Z,40.60
2022-11-09T02:37:32.825Z,32.63
2022-11-09T02:40:25.450Z,38.50
2022-11-09T02:43:16.772Z,40.20
2022-11-09T02:46:05.951Z,40.33
2022-11-09T02:48:54.372Z,41.90
2022-11-09T02:51:42.203Z,41.75
2022-11-09T02:54:32.546Z,39.10
2022-11-09T02:57:20.874Z,39.60
2022-11-09T03:00:10.221Z,35.67
2022-11-09T03:02:59.168Z,43.90
2022-11-09T03:05:47.112Z,40.63
2022-11-09T03:08:35.291Z,35.80
2022-11-09T03:11:25.670Z,33.23
2022-11-09T03:14:13.823Z,38.50
2022-11-09T03:17:08.444Z,46.10
2022-11-09T03:19:56.172Z,42.97
2022-11-09T03:22:45.505Z,44.23
2022-11-09T03:25:33.422Z,36.10
2022-11-09T03:28:23.022Z,45.23
2022-11-09T03:31:12.671Z,38.80
2022-11-09T03:34:00.303Z,39.07
2022-11-09T03:36:48.295Z,37.37
2022-11-09T03:39:36.268Z,34.87
2022-11-09T03:42:23.881Z,35.13
2022-11-09T03:45:13.328Z,32.80
2022-11-09T03:48:01.116Z,36.90
2022-11-09T03:50:48.998Z,32.37
2022-11-09T03:53:36.970Z,28.10
2022-11-09T03:56:24.798Z,32.60
2022-11-09T03:59:12.511Z,31.07
2022-11-09T04:02:01.822Z,27.40
2022-11-09T04:04:49.998Z,32.03
2022-11-09T04:07:37.690Z,33.40
2022-11-09T04:10:27.183Z,32.27
2022-11-09T04:13:14.967Z,31.27
2022-11-09T04:16:03.034Z,26.53
2022-11-09T04:18:52.001Z,29.03
2022-11-09T04:21:40.761Z,26.27
2022-11-09T04:24:28.391Z,29.07
2022-11-09T04:27:16.686Z,25.53
2022-11-09T04:30:04.604Z,26.10
2022-11-09T04:32:52.399Z,30.67
2022-11-09T04:35:41.416Z,31.23
2022-11-09T04:38:32.403Z,30.23
2022-11-09T04:41:20.060Z,30.73
2022-11-09T04:44:08.036Z,36.20
2022-11-09T04:46:55.891Z,32.30
2022-11-09T04:49:43.457Z,26.23
2022-11-09T04:52:32.852Z,34.07
2022-11-09T04:55:20.525Z,36.50
2022-11-09T04:58:08.658Z,29.00
2022-11-09T05:00:56.814Z,29.30
2022-11-09T05:03:44.772Z,27.63
2022-11-09T05:06:35.644Z,31.67
2022-11-09T05:09:24.791Z,33.23
2022-11-09T05:12:12.828Z,35.50
2022-11-09T05:15:00.448Z,28.37
2022-11-09T05:17:48.445Z,30.33
2022-11-09T05:20:37.225Z,29.47
2022-11-09T05:23:42.377Z,33.13
2022-11-09T05:26:33.170Z,30.03
2022-11-09T05:29:21.002Z,29.30
2022-11-09T05:32:08.726Z,25.10
2022-11-09T05:34:56.623Z,29.33
2022-11-09T05:37:47.276Z,28.93
2022-11-09T05:40:34.866Z,25.80
2022-11-09T05:43:24.178Z,27.67
2022-11-09T05:46:11.987Z,29.93
2022-11-09T05:48:59.597Z,41.90
2022-11-09T05:51:47.574Z,36.17
2022-11-09T05:54:35.022Z,35.67
2022-11-09T05:57:22.722Z,42.10
2022-11-09T06:00:14.316Z,39.87
2022-11-09T06:03:04.160Z,37.27
2022-11-09T06:05:51.680Z,37.23
2022-11-09T06:08:39.635Z,34.47
2022-11-09T06:11:28.941Z,35.77
2022-11-09T06:14:16.887Z,32.37
2022-11-09T06:17:06.019Z,38.83
2022-11-09T06:19:53.878Z,29.73
2022-11-09T06:22:41.688Z,38.17
2022-11-09T06:25:33.129Z,35.60
2022-11-09T06:28:21.666Z,33.87
2022-11-09T06:31:12.912Z,30.17
2022-11-09T06:34:02.184Z,27.93
2022-11-09T06:36:50.199Z,31.13
2022-11-09T06:39:38.036Z,32.53
2022-11-09T06:42:26.221Z,29.33
2022-11-09T06:45:14.223Z,35.93
2022-11-09T06:48:03.581Z,36.53
2022-11-09T06:50:52.590Z,33.30
2022-11-09T06:53:41.455Z,32.13
2022-11-09T06:56:29.286Z,33.97
2022-11-09T06:59:16.879Z,31.97
2022-11-09T07:02:04.807Z,33.07
2022-11-09T07:04:53.516Z,37.67
2022-11-09T07:07:42.443Z,35.87
2022-11-09T07:10:30.340Z,40.33
2022-11-09T07:13:18.130Z,51.80
2022-11-09T07:16:06.009Z,63.97
2022-11-09T07:18:53.850Z,79.20
2022-11-09T07:21:41.324Z,88.93
2022-11-09T07:24:30.301Z,92.13
2022-11-09T07:27:17.806Z,92.97
2022-11-09T07:30:06.527Z,91.30
2022-11-09T07:33:08.712Z,88.90
2022-11-09T07:35:59.861Z,82.20
2022-11-09T07:38:47.637Z,79.17
2022-11-09T07:41:37.074Z,79.73
2022-11-09T07:44:24.895Z,80.60
2022-11-09T07:47:18.154Z,85.07
2022-11-09T07:50:07.116Z,100.60
2022-11-09T07:52:56.455Z,97.70
2022-11-09T07:55:44.480Z,90.67
2022-11-09T07:58:36.057Z,80.07
2022-11-09T08:01:24.201Z,85.30
2022-11-09T08:04:12.372Z,76.13
2022-11-09T08:07:00.530Z,79.73
2022-11-09T08:09:48.236Z,75.55
2022-11-09T08:12:37.353Z,66.23
2022-11-09T08:15:27.556Z,66.07
2022-11-09T08:18:17.649Z,54.78
2022-11-09T08:21:06.795Z,55.38
2022-11-09T08:23:54.442Z,55.13
2022-11-09T08:26:42.334Z,54.22
2022-11-09T08:29:30.110Z,42.78
2022-11-09T08:32:19.177Z,49.63
2022-11-09T08:35:10.147Z,40.20
2022-11-09T08:38:01.321Z,45.30
2022-11-09T08:40:49.575Z,43.38
2022-11-09T08:43:37.569Z,40.00
2022-11-09T08:46:25.104Z,44.50
2022-11-09T08:49:14.963Z,41.55
2022-11-09T08:52:02.683Z,41.35
2022-11-09T08:54:50.634Z,40.25
2022-11-09T08:57:38.315Z,38.28
2022-11-09T09:00:26.768Z,42.38
2022-11-09T09:03:14.649Z,38.35
2022-11-09T09:06:05.760Z,39.47
2022-11-09T09:08:53.979Z,34.72
2022-11-09T09:11:41.435Z,38.10
2022-11-09T09:14:29.289Z,36.47
2022-11-09T09:17:16.723Z,33.67
2022-11-09T09:20:05.252Z,37.75
2022-11-09T09:22:54.386Z,35.05
2022-11-09T09:25:42.375Z,32.13
2022-11-09T09:28:30.171Z,31.48
2022-11-09T09:31:18.745Z,29.90
2022-11-09T09:34:07.102Z,29.48
2022-11-09T09:36:54.895Z,32.67
2022-11-09T09:39:44.084Z,33.95
2022-11-09T09:42:35.941Z,31.88
2022-11-09T09:45:27.319Z,33.72
2022-11-09T10:43:29.073Z,29.45
2022-11-09T10:47:05.755Z,30.83
2022-11-09T10:53:26.522Z,25.80
2022-11-09T10:57:04.944Z,25.17
2022-11-09T11:00:17.489Z,22.25
2022-11-09T11:03:26.048Z,22.83
2022-11-09T13:50:29.899Z,20.88
2022-11-09T13:53:55.057Z,17.73
2022-11-09T13:57:05.656Z,21.23
2022-11-09T14:25:35.585Z,19.70
2022-11-09T14:31:49.275Z,23.33
2022-11-09T14:35:10.399Z,23.42
2022-11-09T14:41:27.762Z,22.30
2022-11-09T14:44:40.504Z,20.85
2022-11-09T14:47:51.099Z,24.23
2022-11-09T14:51:00.479Z,25.75
2022-11-09T14:54:10.245Z,23.23
2022-11-09T14:57:18.446Z,26.67
2022-11-09T15:00:31.765Z,29.92
2022-11-09T15:03:39.532Z,28.00
2022-11-09T15:06:49.078Z,30.60
2022-11-09T15:09:58.650Z,32.45
2022-11-09T15:13:05.062Z,30.83
2022-11-09T15:16:22.450Z,29.13
2022-11-09T15:19:33.450Z,24.77
2022-11-09T15:22:49.286Z,27.40
2022-11-09T15:25:56.982Z,24.23
2022-11-09T15:29:04.170Z,29.20
2022-11-09T15:32:18.579Z,34.60
2022-11-09T15:35:26.811Z,31.80
2022-11-09T15:38:36.660Z,34.33
2022-11-09T15:41:43.015Z,38.15
2022-11-09T15:44:53.247Z,36.78
2022-11-09T15:47:59.384Z,34.80
2022-11-09T15:51:07.180Z,34.00
2022-11-09T15:54:13.549Z,37.42
2022-11-09T15:57:21.875Z,41.88
2022-11-09T16:00:28.381Z,35.47
2022-11-09T16:03:34.702Z,40.30
2022-11-09T16:06:46.360Z,38.70
2022-11-09T16:09:52.958Z,37.38
2022-11-09T16:12:59.191Z,35.05
2022-11-09T16:16:06.747Z,39.17
2022-11-09T16:19:15.336Z,44.55
2022-11-09T16:22:23.270Z,46.22
2022-11-09T16:25:29.737Z,43.38
2022-11-09T16:28:35.900Z,41.80
2022-11-09T16:31:51.393Z,38.88
2022-11-09T16:35:15.838Z,40.63
2022-11-09T16:38:25.804Z,46.13
2022-11-09T16:41:32.415Z,36.38
2022-11-09T16:44:40.926Z,30.08
2022-11-09T16:47:49.621Z,35.90
2022-11-09T16:50:56.032Z,33.40
2022-11-09T16:54:03.855Z,35.00
2022-11-09T16:57:10.814Z,37.20
2022-11-09T17:00:23.101Z,35.00
2022-11-09T17:03:29.899Z,42.47
2022-11-09T17:06:36.549Z,36.28
2022-11-09T17:09:44.376Z,33.85
2022-11-09T17:12:50.812Z,36.28
2022-11-09T17:16:12.889Z,25.75
2022-11-09T17:19:20.573Z,35.85
2022-11-09T17:22:26.795Z,39.35
2022-11-09T17:25:34.787Z,40.97
2022-11-09T17:28:43.265Z,40.72
2022-11-09T17:31:49.923Z,35.72
2022-11-09T17:34:55.967Z,36.83
2022-11-09T17:38:02.151Z,40.40
2022-11-09T17:41:23.050Z,41.63
2022-11-09T17:44:29.932Z,38.45
2022-11-09T17:47:36.208Z,41.40
2022-11-09T17:50:42.540Z,39.50
2022-11-09T17:53:48.765Z,33.83
2022-11-09T17:56:57.004Z,40.53
2022-11-09T18:00:06.649Z,42.00
2022-11-09T18:03:12.749Z,35.75
2022-11-09T18:06:20.324Z,37.85
2022-11-09T18:09:40.802Z,36.63
2022-11-09T18:12:49.424Z,39.63
2022-11-09T18:15:56.136Z,40.22
2022-11-09T18:19:04.295Z,39.63
2022-11-09T18:22:12.857Z,48.17
2022-11-09T18:25:19.813Z,42.03
2022-11-09T18:28:27.952Z,45.53
2022-11-09T18:31:33.788Z,45.25
2022-11-09T18:34:40.280Z,40.63
2022-11-09T18:37:48.525Z,43.08
2022-11-09T18:41:03.413Z,48.20
2022-11-09T18:44:12.564Z,43.10
2022-11-09T18:47:23.761Z,38.27
2022-11-09T18:50:33.621Z,40.17
2022-11-09T18:53:42.242Z,38.23
2022-11-09T18:56:49.127Z,37.03
2022-11-09T18:59:56.929Z,32.38
2022-11-09T19:03:03.555Z,33.67
2022-11-09T19:06:13.933Z,33.70
2022-11-09T19:09:35.680Z,37.53
2022-11-09T19:12:41.905Z,42.70
2022-11-09T19:15:49.976Z,38.57
2022-11-09T19:18:56.595Z,38.23
2022-11-09T19:22:03.267Z,31.73
2022-11-09T19:25:10.312Z,33.27
2022-11-09T19:28:16.590Z,35.30
2022-11-09T19:31:25.521Z,33.57
2022-11-09T19:34:32.347Z,38.47
2022-11-09T19:37:38.557Z,32.50
2022-11-09T19:40:45.154Z,39.77
2022-11-09T19:43:51.594Z,41.63
2022-11-09T19:46:59.502Z,33.87
2022-11-09T19:50:06.832Z,40.63
2022-11-09T19:53:13.259Z,42.37
2022-11-09T19:56:20.913Z,39.83
2022-11-09T19:59:27.452Z,41.23
2022-11-09T20:02:35.193Z,46.57
2022-11-09T20:05:42.001Z,46.70
2022-11-09T20:08:48.491Z,47.30
2022-11-09T20:12:12.121Z,48.80
2022-11-09T20:15:19.576Z,51.53
2022-11-09T20:18:27.773Z,47.70
2022-11-09T20:21:34.132Z,48.80
2022-11-09T20:24:40.644Z,52.90
2022-11-09T20:27:46.628Z,57.87
2022-11-09T20:30:52.689Z,55.87
2022-11-09T20:34:00.902Z,59.53
2022-11-09T20:37:06.578Z,53.63
2022-11-09T20:40:13.690Z,56.03
2022-11-09T20:43:19.421Z,60.40
2022-11-09T20:46:28.003Z,61.20
2022-11-09T20:49:37.274Z,59.33
2022-11-09T20:52:43.250Z,60.33
2022-11-09T20:55:53.200Z,61.03
2022-11-09T20:58:59.160Z,61.93
2022-11-09T21:02:05.852Z,53.03
2022-11-09T21:05:13.442Z,56.07
2022-11-09T21:08:20.349Z,66.67
2022-11-09T21:11:28.794Z,60.45
2022-11-09T21:14:34.958Z,62.10
2022-11-09T21:17:41.175Z,68.00
2022-11-09T21:20:49.127Z,60.13
2022-11-09T21:24:27.188Z,68.53
2022-11-09T21:27:51.130Z,66.63
2022-11-09T21:31:01.601Z,64.17
2022-11-09T21:34:08.051Z,84.50
2022-11-09T21:37:18.850Z,95.72
2022-11-09T21:40:25.050Z,85.53
2022-11-09T21:43:30.844Z,85.63
2022-11-09T21:46:38.081Z,86.80
2022-11-09T21:49:44.071Z,97.60
2022-11-09T21:52:51.299Z,90.13
2022-11-09T21:56:00.122Z,95.33
2022-11-09T21:59:06.681Z,90.13
2022-11-09T22:02:13.204Z,91.20
2022-11-09T22:05:22.938Z,84.50
2022-11-09T22:08:31.166Z,92.80
2022-11-09T22:11:54.625Z,93.90
2022-11-09T22:15:20.310Z,84.47
2022-11-09T22:18:49.544Z,90.90
2022-11-09T22:21:56.084Z,74.07
2022-11-09T22:25:04.012Z,87.77
2022-11-09T22:28:09.944Z,77.43
2022-11-09T22:31:16.250Z,78.13
2022-11-09T22:34:22.535Z,78.93
2022-11-09T22:37:28.632Z,75.20
2022-11-09T22:40:36.406Z,75.30
2022-11-09T22:43:44.338Z,76.27
2022-11-09T22:46:50.699Z,69.43
2022-11-09T22:49:57.036Z,63.93
2022-11-09T22:53:04.030Z,68.28
2022-11-09T22:56:12.588Z,68.50
2022-11-09T22:59:18.718Z,64.23
2022-11-09T23:02:24.617Z,67.47
2022-11-09T23:05:30.878Z,66.55
2022-11-09T23:08:38.314Z,61.40
2022-11-09T23:11:46.021Z,63.13
2022-11-09T23:15:12.767Z,62.20
2022-11-09T23:18:36.915Z,59.55
2022-11-09T23:21:43.319Z,60.03
2022-11-09T23:25:06.794Z,68.13
2022-11-09T23:28:15.282Z,60.13
2022-11-09T23:31:24.503Z,60.50
2022-11-09T23:34:30.459Z,56.88
2022-11-09T23:37:36.519Z,58.87
2022-11-09T23:40:42.575Z,57.90
2022-11-09T23:43:50.426Z,58.70
2022-11-09T23:46:56.965Z,60.43
2022-11-09T23:50:02.917Z,64.30
2022-11-09T23:53:09.358Z,63.03
2022-11-09T23:56:15.575Z,57.17
2022-11-09T23:59:23.440Z,55.33
